createdAt,value
2017-08-05T00:00:13.659Z,9.70
2017-08-05T00:02:42.967Z,10.50
2017-08-05T00:05:12.468Z,10.10
2017-08-05T00:07:41.762Z,10.30
2017-08-05T00:10:11.242Z,9.50
2017-08-05T00:12:40.681Z,10.80
2017-08-05T00:15:10.203Z,9.80
2017-08-05T00:17:39.649Z,10.10
2017-08-05T00:20:09.156Z,11.20
2017-08-05T00:22:38.624Z,10.23
2017-08-05T00:25:08.140Z,10.60
2017-08-05T00:27:37.571Z,10.03
2017-08-05T00:30:07.061Z,9.70
2017-08-05T00:32:36.522Z,9.90
2017-08-05T00:35:06.037Z,10.10
2017-08-05T00:37:35.499Z,10.33
2017-08-05T00:40:05.005Z,10.63
2017-08-05T00:42:34.453Z,9.83
2017-08-05T00:45:03.971Z,10.40
2017-08-05T00:47:33.409Z,10.40
2017-08-05T00:50:02.928Z,10.77
2017-08-05T00:52:32.378Z,10.30
2017-08-05T00:55:01.959Z,9.07
2017-08-05T00:57:31.436Z,11.70
2017-08-05T01:00:00.912Z,7.90
2017-08-05T01:02:30.232Z,8.87
2017-08-05T01:04:59.697Z,7.73
2017-08-05T01:07:29.262Z,8.17
2017-08-05T01:09:58.718Z,12.93
2017-08-05T01:12:28.190Z,10.60
2017-08-05T01:14:57.660Z,8.90
2017-08-05T01:17:27.109Z,7.03
2017-08-05T01:19:56.570Z,2.83
2017-08-05T01:22:26.060Z,3.63
2017-08-05T01:24:55.514Z,4.40
2017-08-05T01:27:24.945Z,6.63
2017-08-05T01:29:54.396Z,5.30
2017-08-05T01:32:23.832Z,6.67
2017-08-05T01:34:53.285Z,6.70
2017-08-05T01:37:22.734Z,6.60
2017-08-05T01:39:52.180Z,6.63
2017-08-05T01:42:21.609Z,5.87
2017-08-05T01:44:51.117Z,5.73
2017-08-05T01:47:20.569Z,6.07
2017-08-05T01:49:49.692Z,5.67
2017-08-05T01:52:19.147Z,5.77
2017-08-05T01:54:48.589Z,5.80
2017-08-05T01:57:18.035Z,5.80
2017-08-05T01:59:48.424Z,5.07
2017-08-05T02:02:17.865Z,5.10
2017-08-05T02:04:47.321Z,5.07
2017-08-05T02:07:16.764Z,3.70
2017-08-05T02:09:46.221Z,4.43
2017-08-05T02:12:15.662Z,3.90
2017-08-05T02:14:45.105Z,3.80
2017-08-05T02:17:14.547Z,3.70
2017-08-05T02:19:43.990Z,3.83
2017-08-05T02:22:13.434Z,3.60
2017-08-05T02:24:42.900Z,3.20
2017-08-05T02:27:12.348Z,3.50
2017-08-05T02:29:41.797Z,3.70
2017-08-05T02:32:11.247Z,3.50
2017-08-05T02:34:40.686Z,3.87
2017-08-05T02:37:10.157Z,3.37
2017-08-05T02:39:45.611Z,3.30
2017-08-05T02:42:15.756Z,3.03
2017-08-05T02:44:45.036Z,3.00
2017-08-05T02:47:14.484Z,3.40
2017-08-05T02:49:43.935Z,2.83
2017-08-05T02:52:13.369Z,3.33
2017-08-05T02:54:42.822Z,3.17
2017-08-05T02:57:12.290Z,3.30
2017-08-05T02:59:41.725Z,2.60
2017-08-05T03:02:11.164Z,3.20
2017-08-05T03:04:40.620Z,3.00
2017-08-05T03:07:10.055Z,2.90
2017-08-05T03:09:39.496Z,3.77
2017-08-05T03:12:08.956Z,3.17
2017-08-05T03:14:38.413Z,3.40
2017-08-05T03:17:07.847Z,2.83
2017-08-05T03:19:37.302Z,3.23
2017-08-05T03:22:06.775Z,3.63
2017-08-05T03:24:36.251Z,3.60
2017-08-05T03:27:05.773Z,3.37
2017-08-05T03:29:35.205Z,3.23
2017-08-05T03:32:04.668Z,3.50
2017-08-05T03:34:34.125Z,3.60
2017-08-05T03:37:03.568Z,2.90
2017-08-05T03:39:33.013Z,3.63
2017-08-05T03:42:02.475Z,3.43
2017-08-05T03:44:31.953Z,3.17
2017-08-05T03:47:01.485Z,3.17
2017-08-05T03:49:30.926Z,3.57
2017-08-05T03:52:00.376Z,2.90
2017-08-05T03:54:29.827Z,3.10
2017-08-05T03:56:59.285Z,3.40
2017-08-05T03:59:28.714Z,3.47
2017-08-05T04:01:58.169Z,3.60
2017-08-05T04:04:27.612Z,3.33
2017-08-05T04:06:57.070Z,3.13
2017-08-05T04:09:26.507Z,4.00
2017-08-05T04:11:55.957Z,3.30
2017-08-05T04:14:25.421Z,3.43
2017-08-05T04:16:54.676Z,3.17
2017-08-05T04:19:24.184Z,3.30
2017-08-05T04:21:53.625Z,3.57
2017-08-05T04:24:23.068Z,2.97
2017-08-05T04:26:52.512Z,3.23
2017-08-05T04:29:21.964Z,2.90
2017-08-05T04:31:51.426Z,3.13
2017-08-05T04:34:20.880Z,3.03
2017-08-05T04:36:50.343Z,3.50
2017-08-05T04:39:19.768Z,2.90
2017-08-05T04:41:49.237Z,3.50
2017-08-05T04:44:18.684Z,2.80
2017-08-05T04:46:48.129Z,2.70
2017-08-05T04:49:17.593Z,2.80
2017-08-05T04:51:47.031Z,3.17
2017-08-05T04:54:16.473Z,3.43
2017-08-05T04:56:45.920Z,3.37
2017-08-05T04:59:15.373Z,3.03
2017-08-05T05:01:44.822Z,2.90
2017-08-05T05:04:14.282Z,3.10
2017-08-05T05:06:43.718Z,3.20
2017-08-05T05:09:13.166Z,3.13
2017-08-05T05:11:42.609Z,2.90
2017-08-05T05:14:12.044Z,3.13
2017-08-05T05:16:41.488Z,3.30
2017-08-05T05:19:10.943Z,3.43
2017-08-05T05:21:40.384Z,2.80
2017-08-05T05:24:09.839Z,3.00
2017-08-05T05:26:39.276Z,3.40
2017-08-05T05:29:08.729Z,2.60
2017-08-05T05:31:38.168Z,2.50
2017-08-05T05:34:07.662Z,2.90
2017-08-05T05:36:37.091Z,3.10
2017-08-05T05:39:06.616Z,3.00
2017-08-05T05:41:36.059Z,3.67
2017-08-05T05:44:05.513Z,2.97
2017-08-05T05:46:34.967Z,3.30
2017-08-05T05:49:04.416Z,3.17
2017-08-05T05:51:33.845Z,3.40
2017-08-05T05:54:03.292Z,3.20
2017-08-05T05:56:32.756Z,2.93
2017-08-05T05:59:02.200Z,3.40
2017-08-05T06:01:31.632Z,3.00
2017-08-05T06:04:01.072Z,3.23
2017-08-05T06:06:30.513Z,3.30
2017-08-05T06:08:59.947Z,3.23
2017-08-05T06:11:29.456Z,3.13
2017-08-05T06:13:58.932Z,3.27
2017-08-05T06:16:28.396Z,3.77
2017-08-05T06:18:57.877Z,3.60
2017-08-05T06:21:27.352Z,3.20
2017-08-05T06:23:56.787Z,2.97
2017-08-05T06:26:26.265Z,3.67
2017-08-05T06:28:55.701Z,4.30
2017-08-05T06:31:25.164Z,3.70
2017-08-05T06:33:54.619Z,2.83
2017-08-05T06:36:24.060Z,3.30
2017-08-05T06:38:53.510Z,3.73
2017-08-05T06:41:22.951Z,3.60
2017-08-05T06:43:52.392Z,3.60
2017-08-05T06:46:21.832Z,3.23
2017-08-05T06:48:51.283Z,3.40
2017-08-05T06:51:20.720Z,3.60
2017-08-05T06:53:50.169Z,3.07
2017-08-05T06:56:19.630Z,2.93
2017-08-05T06:58:49.073Z,4.07
2017-08-05T07:01:20.247Z,4.00
2017-08-05T07:03:49.802Z,3.00
2017-08-05T07:06:19.245Z,3.40
2017-08-05T07:08:48.713Z,3.27
2017-08-05T07:11:18.151Z,3.47
2017-08-05T07:13:47.608Z,3.03
2017-08-05T07:16:17.092Z,2.87
2017-08-05T07:18:46.552Z,2.83
2017-08-05T07:21:16.001Z,2.70
2017-08-05T07:23:45.503Z,2.63
2017-08-05T07:26:14.937Z,3.27
2017-08-05T07:28:44.371Z,2.57
2017-08-05T07:31:13.810Z,3.63
2017-08-05T07:33:43.252Z,2.77
2017-08-05T07:36:12.552Z,2.70
2017-08-05T07:38:41.986Z,3.17
2017-08-05T07:41:11.433Z,3.17
2017-08-05T07:43:40.886Z,2.90
2017-08-05T07:46:10.320Z,2.90
2017-08-05T07:48:39.756Z,2.80
2017-08-05T07:51:09.205Z,2.57
2017-08-05T07:53:38.661Z,2.57
2017-08-05T07:56:08.107Z,2.27
2017-08-05T07:58:37.653Z,2.90
2017-08-05T08:01:07.113Z,2.93
2017-08-05T08:03:36.575Z,3.40
2017-08-05T08:06:06.012Z,2.73
2017-08-05T08:08:35.469Z,2.57
2017-08-05T08:11:04.920Z,3.47
2017-08-05T08:13:34.369Z,3.03
2017-08-05T08:16:03.831Z,2.73
2017-08-05T08:18:33.270Z,3.40
2017-08-05T08:21:02.705Z,2.90
2017-08-05T08:23:32.150Z,2.70
2017-08-05T08:26:01.606Z,3.30
2017-08-05T08:28:31.027Z,2.70
2017-08-05T08:31:00.483Z,2.80
2017-08-05T08:33:29.976Z,2.43
2017-08-05T08:35:59.422Z,2.63
2017-08-05T08:38:28.865Z,2.20
2017-08-05T08:40:58.320Z,2.33
2017-08-05T08:43:27.753Z,2.60
2017-08-05T08:45:57.221Z,2.00
2017-08-05T08:48:26.701Z,2.37
2017-08-05T08:50:56.166Z,2.20
2017-08-05T08:53:25.639Z,1.90
2017-08-05T08:55:55.185Z,1.80
2017-08-05T08:58:24.655Z,1.83
2017-08-05T09:00:54.147Z,2.23
2017-08-05T09:03:23.669Z,2.50
2017-08-05T09:05:53.138Z,2.57
2017-08-05T09:08:22.576Z,2.03
2017-08-05T09:10:52.031Z,2.30
2017-08-05T09:13:21.480Z,2.50
2017-08-05T09:15:50.956Z,2.90
2017-08-05T09:18:20.401Z,2.70
2017-08-05T09:20:49.851Z,2.50
2017-08-05T09:23:19.297Z,2.70
2017-08-05T09:25:48.778Z,3.10
2017-08-05T09:28:18.283Z,2.70
2017-08-05T09:30:47.735Z,2.70
2017-08-05T09:33:17.190Z,3.10
2017-08-05T09:35:46.634Z,2.40
2017-08-05T09:38:16.076Z,3.00
2017-08-05T09:40:45.565Z,2.90
2017-08-05T09:43:15.009Z,2.40
2017-08-05T09:45:44.530Z,2.80
2017-08-05T09:48:14.068Z,2.97
2017-08-05T09:50:43.527Z,3.00
2017-08-05T09:53:12.989Z,2.63
2017-08-05T09:55:42.428Z,2.67
2017-08-05T09:58:11.888Z,2.67
2017-08-05T10:00:41.332Z,2.93
2017-08-05T10:03:10.769Z,3.50
2017-08-05T10:05:40.229Z,3.37
2017-08-05T10:08:09.701Z,4.07
2017-08-05T10:10:39.185Z,4.80
2017-08-05T10:13:08.632Z,4.40
2017-08-05T10:15:38.107Z,5.67
2017-08-05T10:18:07.548Z,4.70
2017-08-05T10:20:36.990Z,4.10
2017-08-05T10:23:06.447Z,4.17
2017-08-05T10:25:35.890Z,4.30
2017-08-05T10:28:05.326Z,4.00
2017-08-05T10:30:34.900Z,5.17
2017-08-05T10:33:04.339Z,5.63
2017-08-05T10:35:33.823Z,5.67
2017-08-05T10:38:03.252Z,3.40
2017-08-05T10:40:32.709Z,3.50
2017-08-05T10:43:02.153Z,3.43
2017-08-05T10:45:31.610Z,3.70
2017-08-05T10:48:01.044Z,3.70
2017-08-05T10:50:30.487Z,4.33
2017-08-05T10:52:59.966Z,4.03
2017-08-05T10:55:29.398Z,3.87
2017-08-05T10:57:58.967Z,3.80
2017-08-05T11:00:29.095Z,3.53
2017-08-05T11:02:58.369Z,3.90
2017-08-05T11:05:27.818Z,3.23
2017-08-05T11:07:57.422Z,3.67
2017-08-05T11:10:26.876Z,3.10
2017-08-05T11:12:56.345Z,3.77
2017-08-05T11:15:25.792Z,3.33
2017-08-05T11:17:55.285Z,3.47
2017-08-05T11:20:24.716Z,3.70
2017-08-05T11:22:54.271Z,3.23
2017-08-05T11:25:23.757Z,3.20
2017-08-05T11:27:53.233Z,4.00
2017-08-05T11:30:22.698Z,3.93
2017-08-05T11:35:30.720Z,3.63
2017-08-05T11:38:00.156Z,3.20
2017-08-05T11:40:29.635Z,3.17
2017-08-05T11:42:59.086Z,3.00
2017-08-05T11:45:28.535Z,3.47
2017-08-05T11:47:57.981Z,2.60
2017-08-05T11:50:27.434Z,3.23
2017-08-05T11:52:56.896Z,2.73
2017-08-05T11:55:26.321Z,2.87
2017-08-05T11:57:55.789Z,3.43
2017-08-05T12:00:25.306Z,3.43
2017-08-05T12:02:54.607Z,3.50
2017-08-05T12:05:24.083Z,3.20
2017-08-05T12:07:53.524Z,3.47
2017-08-05T12:10:23.012Z,4.60
2017-08-05T12:12:52.453Z,4.77
2017-08-05T12:15:21.951Z,4.00
2017-08-05T12:17:51.392Z,3.30
2017-08-05T12:20:20.878Z,3.03
2017-08-05T12:22:50.327Z,3.97
2017-08-05T12:25:19.828Z,3.60
2017-08-05T12:27:49.269Z,3.20
2017-08-05T12:30:18.738Z,3.00
2017-08-05T12:32:48.189Z,3.13
2017-08-05T12:35:17.702Z,2.90
2017-08-05T12:37:47.133Z,2.13
2017-08-05T12:40:16.607Z,2.80
2017-08-05T12:42:46.080Z,2.40
2017-08-05T12:45:15.548Z,2.40
2017-08-05T12:47:45.001Z,2.80
2017-08-05T12:50:14.481Z,2.33
2017-08-05T12:52:44.024Z,2.73
2017-08-05T12:55:13.473Z,2.57
2017-08-05T12:57:42.948Z,2.23
2017-08-05T13:00:12.424Z,2.70
2017-08-05T13:02:41.861Z,2.20
2017-08-05T13:05:11.427Z,2.23
2017-08-05T13:07:41.238Z,2.27
2017-08-05T13:10:10.813Z,1.97
2017-08-05T13:12:40.326Z,2.27
2017-08-05T13:15:10.225Z,1.80
2017-08-05T13:17:39.813Z,1.97
2017-08-05T13:20:09.291Z,2.10
2017-08-05T13:22:38.844Z,2.00
2017-08-05T13:25:08.443Z,1.60
2017-08-05T13:27:38.015Z,2.10
2017-08-05T13:30:07.950Z,2.40
2017-08-05T13:32:37.416Z,1.80
2017-08-05T13:35:07.484Z,2.10
2017-08-05T13:37:37.788Z,1.97
2017-08-05T13:40:07.694Z,2.23
2017-08-05T13:42:37.524Z,2.33
2017-08-05T13:45:07.185Z,1.63
2017-08-05T13:47:36.776Z,2.10
2017-08-05T13:50:06.400Z,1.90
2017-08-05T13:52:36.082Z,2.00
2017-08-05T13:55:05.622Z,2.50
2017-08-05T13:57:35.984Z,1.80
2017-08-05T14:00:05.481Z,1.80
2017-08-05T14:02:34.970Z,2.03
2017-08-05T14:05:04.725Z,1.93
2017-08-05T14:07:34.672Z,1.70
2017-08-05T14:10:04.410Z,1.70
2017-08-05T14:12:34.012Z,2.00
2017-08-05T14:15:03.587Z,1.97
2017-08-05T14:17:33.462Z,1.53
2017-08-05T14:20:03.485Z,1.97
2017-08-05T14:22:33.343Z,2.07
2017-08-05T14:25:03.433Z,1.90
2017-08-05T14:27:33.283Z,2.30
2017-08-05T14:30:03.006Z,1.87
2017-08-05T14:32:32.685Z,1.80
2017-08-05T14:35:02.269Z,1.77
2017-08-05T14:37:32.135Z,1.60
2017-08-05T14:40:01.935Z,1.70
2017-08-05T14:42:31.761Z,1.70
2017-08-05T14:45:01.661Z,1.40
2017-08-05T14:47:31.154Z,1.63
2017-08-05T14:50:00.980Z,1.43
2017-08-05T14:52:30.651Z,1.90
2017-08-05T14:55:00.383Z,1.70
2017-08-05T14:57:29.826Z,1.40
2017-08-05T14:59:59.407Z,1.57
2017-08-05T15:02:28.951Z,1.40
2017-08-05T15:04:58.516Z,1.57
2017-08-05T15:07:28.001Z,2.10
2017-08-05T15:09:57.571Z,1.80
2017-08-05T15:12:27.098Z,1.60
2017-08-05T15:14:56.556Z,1.73
2017-08-05T15:17:26.856Z,1.60
2017-08-05T15:19:56.792Z,1.70
2017-08-05T15:22:26.625Z,1.77
2017-08-05T15:24:56.749Z,1.60
2017-08-05T15:27:26.758Z,2.00
2017-08-05T15:29:56.954Z,1.57
2017-08-05T15:32:26.421Z,1.80
2017-08-05T15:34:56.879Z,1.70
2017-08-05T15:37:26.360Z,2.10
2017-08-05T15:39:56.090Z,1.83
2017-08-05T15:42:25.569Z,2.27
2017-08-05T15:44:55.030Z,2.07
2017-08-05T15:47:24.468Z,1.73
2017-08-05T15:49:53.903Z,1.77
2017-08-05T15:52:23.340Z,1.93
2017-08-05T15:54:52.798Z,2.03
2017-08-05T15:57:22.941Z,1.63
2017-08-05T15:59:52.399Z,1.90
2017-08-05T16:02:21.869Z,1.93
2017-08-05T16:04:51.310Z,2.13
2017-08-05T16:07:20.751Z,1.97
2017-08-05T16:09:50.193Z,2.00
2017-08-05T16:12:19.656Z,2.63
2017-08-05T16:14:49.182Z,2.17
2017-08-05T16:17:18.643Z,2.17
2017-08-05T16:19:48.101Z,1.80
2017-08-05T16:22:17.528Z,1.97
2017-08-05T16:24:46.975Z,2.07
2017-08-05T16:27:16.450Z,2.00
2017-08-05T16:29:45.899Z,2.30
2017-08-05T16:32:15.356Z,2.17
2017-08-05T16:34:44.812Z,1.50
2017-08-05T16:37:14.245Z,1.90
2017-08-05T16:39:43.747Z,1.97
2017-08-05T16:42:13.184Z,1.97
2017-08-05T16:44:42.665Z,1.87
2017-08-05T16:47:12.117Z,2.03
2017-08-05T16:49:41.577Z,1.80
2017-08-05T16:52:11.070Z,1.87
2017-08-05T16:54:40.497Z,2.50
2017-08-05T16:57:09.972Z,1.97
2017-08-05T16:59:39.446Z,2.10
2017-08-05T17:02:08.936Z,2.40
2017-08-05T17:04:38.404Z,2.33
2017-08-05T17:07:07.855Z,1.87
2017-08-05T17:09:37.324Z,3.07
2017-08-05T17:12:06.854Z,3.10
2017-08-05T17:14:36.329Z,3.60
2017-08-05T17:17:05.764Z,4.57
2017-08-05T17:19:35.225Z,7.90
2017-08-05T17:22:04.683Z,7.03
2017-08-05T17:24:34.152Z,12.70
2017-08-05T17:27:03.613Z,13.60
2017-08-05T17:29:33.108Z,13.13
2017-08-05T17:32:02.549Z,9.73
2017-08-05T17:34:32.008Z,7.50
2017-08-05T17:37:01.472Z,8.83
2017-08-05T17:39:30.962Z,7.73
2017-08-05T17:42:00.437Z,5.00
2017-08-05T17:44:29.912Z,5.00
2017-08-05T17:46:59.379Z,4.73
2017-08-05T17:49:28.847Z,6.00
2017-08-05T17:51:58.289Z,5.63
2017-08-05T17:54:27.735Z,6.57
2017-08-05T17:56:57.180Z,6.43
2017-08-05T17:59:26.631Z,6.10
2017-08-05T18:01:56.088Z,5.70
2017-08-05T18:04:25.570Z,6.83
2017-08-05T18:06:55.018Z,5.97
2017-08-05T18:09:24.469Z,6.10
2017-08-05T18:11:53.945Z,5.30
2017-08-05T18:14:23.424Z,4.90
2017-08-05T18:16:52.911Z,4.23
2017-08-05T18:19:22.380Z,3.70
2017-08-05T18:21:51.834Z,3.97
2017-08-05T18:24:21.326Z,4.30
2017-08-05T18:26:50.796Z,3.50
2017-08-05T18:29:20.216Z,3.73
2017-08-05T18:31:49.703Z,3.43
2017-08-05T18:34:19.151Z,2.93
2017-08-05T18:36:48.593Z,3.80
2017-08-05T18:39:18.037Z,3.27
2017-08-05T18:41:47.506Z,3.60
2017-08-05T18:44:16.938Z,3.83
2017-08-05T18:46:46.401Z,3.73
2017-08-05T18:49:15.962Z,3.30
2017-08-05T18:51:45.409Z,3.47
2017-08-05T18:54:14.853Z,3.90
2017-08-05T18:56:44.296Z,12.97
2017-08-05T18:59:13.766Z,4.00
2017-08-05T19:01:43.401Z,3.90
2017-08-05T19:04:13.648Z,4.27
2017-08-05T19:06:43.110Z,3.70
2017-08-05T19:09:12.571Z,3.80
2017-08-05T19:11:42.010Z,4.00
2017-08-05T19:14:11.448Z,5.03
2017-08-05T19:16:40.945Z,4.50
2017-08-05T19:19:10.401Z,5.77
2017-08-05T19:21:39.861Z,5.30
2017-08-05T19:24:09.295Z,4.97
2017-08-05T19:26:38.732Z,4.77
2017-08-05T19:29:08.177Z,5.33
2017-08-05T19:31:37.621Z,5.03
2017-08-05T19:34:07.089Z,5.40
2017-08-05T19:36:36.555Z,4.87
2017-08-05T19:39:05.675Z,5.03
2017-08-05T19:41:35.168Z,3.70
2017-08-05T19:44:04.632Z,4.10
2017-08-05T19:46:34.073Z,4.07
2017-08-05T19:49:03.525Z,7.50
2017-08-05T19:51:33.099Z,13.03
2017-08-05T19:54:02.549Z,5.50
2017-08-05T19:56:32.001Z,8.13
2017-08-05T19:59:01.445Z,5.50
2017-08-05T20:01:30.901Z,4.20
2017-08-05T20:04:00.372Z,4.70
2017-08-05T20:06:29.817Z,4.40
2017-08-05T20:08:59.264Z,3.40
2017-08-05T20:11:28.757Z,3.80
2017-08-05T20:13:58.206Z,4.30
2017-08-05T20:16:27.657Z,4.03
2017-08-05T20:18:57.110Z,4.20
2017-08-05T20:21:26.527Z,3.90
2017-08-05T20:23:55.976Z,3.93
2017-08-05T20:26:25.459Z,3.33
2017-08-05T20:28:54.917Z,3.53
2017-08-05T20:31:24.403Z,3.43
2017-08-05T20:33:53.869Z,4.10
2017-08-05T20:36:23.315Z,3.13
2017-08-05T20:38:52.756Z,3.80
2017-08-05T20:41:22.207Z,4.00
2017-08-05T20:43:51.746Z,3.57
2017-08-05T20:46:21.177Z,4.33
2017-08-05T20:48:50.640Z,3.87
2017-08-05T20:51:20.085Z,4.10
2017-08-05T20:53:49.560Z,3.77
2017-08-05T20:56:18.997Z,3.57
2017-08-05T20:58:48.456Z,3.73
2017-08-05T21:01:17.905Z,4.30
2017-08-05T21:03:47.360Z,5.23
2017-08-05T21:06:16.812Z,3.10
2017-08-05T21:08:46.274Z,5.10
2017-08-05T21:11:15.761Z,6.53
2017-08-05T21:13:45.197Z,3.67
2017-08-05T21:16:14.657Z,3.80
2017-08-05T21:18:44.114Z,4.10
2017-08-05T21:21:13.597Z,4.40
2017-08-05T21:23:43.041Z,4.60
2017-08-05T21:26:12.510Z,4.83
2017-08-05T21:28:41.954Z,5.00
2017-08-05T21:31:11.406Z,3.50
2017-08-05T21:33:40.877Z,3.87
2017-08-05T21:36:10.305Z,4.57
2017-08-05T21:38:39.786Z,4.67
2017-08-05T21:41:09.234Z,5.20
2017-08-05T21:43:38.697Z,3.90
2017-08-05T21:46:08.177Z,5.13
2017-08-05T21:48:37.631Z,4.57
2017-08-05T21:51:07.070Z,4.00
2017-08-05T21:53:36.515Z,4.40
2017-08-05T21:56:05.977Z,4.20
2017-08-05T21:58:35.436Z,6.53
2017-08-05T22:01:04.878Z,4.53
2017-08-05T22:03:34.167Z,4.20
2017-08-05T22:06:03.609Z,4.47
2017-08-05T22:08:32.855Z,4.40
2017-08-05T22:11:02.311Z,5.17
2017-08-05T22:13:31.744Z,4.37
2017-08-05T22:16:01.206Z,6.40
2017-08-05T22:18:30.669Z,4.77
2017-08-05T22:21:00.127Z,4.50
2017-08-05T22:23:29.567Z,4.40
2017-08-05T22:25:59.019Z,4.53
2017-08-05T22:28:28.474Z,4.17
2017-08-05T22:30:57.927Z,4.47
2017-08-05T22:33:27.386Z,4.07
2017-08-05T22:35:57.020Z,4.87
2017-08-05T22:38:26.474Z,4.63
2017-08-05T22:40:55.901Z,3.57
2017-08-05T22:43:25.389Z,4.63
2017-08-05T22:45:54.836Z,5.23
2017-08-05T22:48:24.282Z,4.53
2017-08-05T22:50:53.720Z,4.53
2017-08-05T22:53:23.199Z,4.70
2017-08-05T22:55:52.698Z,5.60
2017-08-05T22:58:22.158Z,4.60
2017-08-05T23:00:51.621Z,5.00
2017-08-05T23:03:21.062Z,4.30
2017-08-05T23:05:50.506Z,5.07
2017-08-05T23:08:19.957Z,4.60
2017-08-05T23:10:49.410Z,5.13
2017-08-05T23:13:18.853Z,5.07
2017-08-05T23:15:48.144Z,5.53
2017-08-05T23:18:17.679Z,5.30
2017-08-05T23:20:47.158Z,5.30
2017-08-05T23:23:16.593Z,7.30
2017-08-05T23:25:46.041Z,5.70
2017-08-05T23:28:15.289Z,5.77
2017-08-05T23:30:45.049Z,4.43
2017-08-05T23:33:14.516Z,4.80
2017-08-05T23:35:44.003Z,4.50
2017-08-05T23:38:13.422Z,5.00
2017-08-05T23:40:42.872Z,3.90
2017-08-05T23:43:12.394Z,4.20
2017-08-05T23:45:41.876Z,3.90
2017-08-05T23:48:11.315Z,4.17
2017-08-05T23:50:40.762Z,4.10
2017-08-05T23:53:10.209Z,3.63
2017-08-05T23:55:39.813Z,3.77
2017-08-05T23:58:09.286Z,3.70
